Time;durP1;ratioP1;P1;durP2;ratioP2;P2;SDS_P1;SDS_P2;PMS_P1;PMS_P2;Temp;Humidity;BMP_temperature;BMP_pressure;BME280_temperature;BME280_humidity;BME280_pressure;Samples;Min_cycle;Max_cycle;Signal;HPM_P1;HPM_P2
2024/03/25 00:01:51;;;;;;;13.83;7.03;;;5.70;99.90;;;;;;5031822;28;20210;-74
2024/03/25 00:04:17;;;;;;;14.07;7.17;;;5.60;99.90;;;;;;5031727;28;20207;-73
2024/03/25 00:06:42;;;;;;;12.03;7.07;;;5.50;99.90;;;;;;5031675;28;20188;-75
2024/03/25 00:09:13;;;;;;;9.83;6.90;;;5.50;99.90;;;;;;5032084;28;20176;-74
2024/03/25 00:11:41;;;;;;;21.27;8.37;;;5.40;99.90;;;;;;5031441;28;20701;-74
2024/03/25 00:14:07;;;;;;;15.13;8.30;;;5.40;99.90;;;;;;5031612;28;20623;-74
2024/03/25 00:16:34;;;;;;;11.53;7.97;;;5.30;99.90;;;;;;5031040;28;20190;-74
2024/03/25 00:18:59;;;;;;;8.50;7.17;;;5.30;99.90;;;;;;5031730;28;20183;-73
2024/03/25 00:21:25;;;;;;;12.57;7.63;;;5.30;99.90;;;;;;5031367;28;20195;-75
2024/03/25 00:23:50;;;;;;;12.73;7.40;;;5.30;99.90;;;;;;5031580;28;20547;-74
2024/03/25 00:26:17;;;;;;;11.50;8.27;;;5.20;99.90;;;;;;5031245;28;20175;-74
2024/03/25 00:28:43;;;;;;;14.47;7.53;;;5.30;99.90;;;;;;5031375;28;20168;-74
2024/03/25 00:31:09;;;;;;;15.53;8.20;;;5.30;99.90;;;;;;5031245;28;20238;-74
2024/03/25 00:33:34;;;;;;;20.67;9.00;;;5.30;99.90;;;;;;5031355;28;20238;-74
2024/03/25 00:36:00;;;;;;;19.77;8.43;;;5.30;99.90;;;;;;5031111;28;20704;-74
2024/03/25 00:38:26;;;;;;;17.33;8.40;;;5.30;99.90;;;;;;5031153;28;20262;-74
2024/03/25 00:40:51;;;;;;;17.33;8.17;;;5.40;99.90;;;;;;5031044;28;20199;-75
2024/03/25 00:43:17;;;;;;;15.30;8.57;;;5.50;99.90;;;;;;5030996;28;20227;-75
2024/03/25 00:45:43;;;;;;;16.63;8.53;;;5.50;99.90;;;;;;5030939;28;20167;-75
2024/03/25 00:48:08;;;;;;;21.33;8.30;;;5.50;99.90;;;;;;5031270;28;20183;-76
2024/03/25 00:50:34;;;;;;;14.70;7.87;;;5.50;99.90;;;;;;5030366;28;20606;-76
2024/03/25 00:52:59;;;;;;;17.57;7.60;;;5.50;99.90;;;;;;5031093;28;20175;-77
2024/03/25 00:55:25;;;;;;;17.40;7.87;;;5.50;99.90;;;;;;5030676;28;20187;-75
2024/03/25 00:57:51;;;;;;;16.63;7.93;;;5.50;99.90;;;;;;5030953;28;20266;-75
2024/03/25 01:00:17;;;;;;;15.83;8.30;;;5.60;99.90;;;;;;5031582;28;20175;-75
2024/03/25 01:02:43;;;;;;;15.40;8.30;;;5.60;99.90;;;;;;5030974;28;20210;-76
2024/03/25 01:05:09;;;;;;;15.13;8.30;;;5.60;99.90;;;;;;5030616;28;20211;-76
2024/03/25 01:07:35;;;;;;;16.53;7.53;;;5.60;99.90;;;;;;5030653;28;20711;-76
2024/03/25 01:10:01;;;;;;;16.27;8.27;;;5.60;99.90;;;;;;5030951;28;20171;-75
2024/03/25 01:12:27;;;;;;;16.50;7.57;;;5.60;99.90;;;;;;5030678;28;20257;-75
2024/03/25 01:14:53;;;;;;;18.33;7.00;;;5.60;99.90;;;;;;5030723;28;20551;-75
2024/03/25 01:17:18;;;;;;;14.97;7.10;;;5.60;99.90;;;;;;5030853;28;20365;-78
2024/03/25 01:19:44;;;;;;;11.77;6.70;;;5.60;99.90;;;;;;5030887;28;20257;-74
2024/03/25 01:22:10;;;;;;;10.13;6.77;;;5.60;99.90;;;;;;5030908;28;20211;-77
2024/03/25 01:24:36;;;;;;;19.13;6.90;;;5.60;99.90;;;;;;5029405;28;20689;-77
2024/03/25 01:27:01;;;;;;;19.50;7.67;;;5.60;99.90;;;;;;5030730;28;20575;-78
2024/03/25 01:29:27;;;;;;;24.27;8.43;;;5.70;99.90;;;;;;5030646;28;20184;-76
2024/03/25 01:31:53;;;;;;;19.30;7.90;;;5.70;99.90;;;;;;5030534;28;20215;-76
2024/03/25 01:34:19;;;;;;;14.20;7.30;;;5.70;99.90;;;;;;5030885;28;20188;-75
2024/03/25 01:36:44;;;;;;;19.53;8.50;;;5.60;99.90;;;;;;5030367;28;20262;-75
2024/03/25 01:39:10;;;;;;;16.10;7.20;;;5.60;99.90;;;;;;5030817;28;20317;-76
2024/03/25 01:41:35;;;;;;;12.20;6.63;;;5.60;99.90;;;;;;5030512;28;20307;-74
2024/03/25 01:44:04;;;;;;;13.03;7.23;;;5.50;99.90;;;;;;5030651;28;20219;-75
2024/03/25 01:46:30;;;;;;;11.73;7.17;;;5.50;99.90;;;;;;5030090;28;20176;-75
2024/03/25 01:48:58;;;;;;;14.33;7.10;;;5.50;99.90;;;;;;5030812;28;20183;-76
2024/03/25 01:51:24;;;;;;;12.37;7.77;;;5.40;99.90;;;;;;5029264;28;20207;-76
2024/03/25 01:53:51;;;;;;;9.93;7.47;;;5.40;99.90;;;;;;5030661;28;20194;-75
2024/03/25 01:56:19;;;;;;;22.17;6.87;;;5.30;99.90;;;;;;5030532;28;20211;-76
2024/03/25 01:58:44;;;;;;;11.73;6.50;;;5.30;99.90;;;;;;5030310;28;20569;-75
2024/03/25 02:01:14;;;;;;;19.90;7.60;;;5.20;99.90;;;;;;5032839;28;20199;-73
2024/03/25 02:03:42;;;;;;;14.13;7.37;;;5.10;99.90;;;;;;5034241;28;20253;-75
2024/03/25 02:06:12;;;;;;;11.47;7.17;;;5.10;99.90;;;;;;5034808;28;20183;-74
2024/03/25 02:08:40;;;;;;;16.57;7.40;;;5.10;99.90;;;;;;5034300;28;20731;-73
2024/03/25 02:11:07;;;;;;;12.13;7.43;;;5.10;99.90;;;;;;5057972;23;20234;-73
2024/03/25 02:13:34;;;;;;;9.80;7.87;;;5.10;99.90;;;;;;5052470;28;20228;-73
2024/03/25 02:16:00;;;;;;;14.43;7.33;;;5.20;99.90;;;;;;5038453;28;20175;-73
2024/03/25 02:18:26;;;;;;;13.70;6.20;;;5.30;99.90;;;;;;5054632;28;20190;-71
2024/03/25 02:20:52;;;;;;;14.53;6.97;;;5.30;99.90;;;;;;5052446;28;20204;-71
2024/03/25 02:23:18;;;;;;;14.10;6.87;;;5.40;99.90;;;;;;5034500;28;20168;-71
2024/03/25 02:25:50;;;;;;;9.17;6.97;;;5.40;99.90;;;;;;5032237;28;20191;-73
2024/03/25 02:28:15;;;;;;;14.90;7.20;;;5.40;99.90;;;;;;5024141;28;20216;-71
2024/03/25 02:30:41;;;;;;;13.77;8.00;;;5.50;99.90;;;;;;5021578;28;20216;-71
2024/03/25 02:33:07;;;;;;;18.17;7.57;;;5.50;99.90;;;;;;5034104;28;20183;-70
2024/03/25 02:35:32;;;;;;;12.83;6.47;;;5.50;99.90;;;;;;5033093;28;20245;-71
2024/03/25 02:37:58;;;;;;;19.20;7.23;;;5.50;99.90;;;;;;5033531;28;20184;-71
2024/03/25 02:40:26;;;;;;;14.60;6.63;;;5.60;99.90;;;;;;5030125;28;20187;-71
2024/03/25 02:42:51;;;;;;;19.67;7.90;;;5.60;99.90;;;;;;5032093;28;20298;-70
2024/03/25 02:45:17;;;;;;;17.67;7.47;;;5.60;99.90;;;;;;5033602;28;20294;-71
2024/03/25 02:47:43;;;;;;;23.93;7.73;;;5.70;99.90;;;;;;5033518;28;20191;-71
2024/03/25 02:50:09;;;;;;;18.60;9.23;;;5.70;99.90;;;;;;5033711;28;20184;-74
2024/03/25 02:52:35;;;;;;;13.77;6.97;;;5.60;99.90;;;;;;5033602;28;20200;-71
2024/03/25 02:55:01;;;;;;;19.97;7.10;;;5.60;99.90;;;;;;5028235;28;20190;-72
2024/03/25 02:57:26;;;;;;;19.40;7.57;;;5.60;99.90;;;;;;5021384;28;20619;-72
2024/03/25 02:59:52;;;;;;;19.90;8.07;;;5.60;99.90;;;;;;5033605;28;20258;-72
2024/03/25 03:02:17;;;;;;;23.13;7.53;;;5.60;99.90;;;;;;5024221;28;20587;-72
2024/03/25 03:04:43;;;;;;;17.77;6.80;;;5.50;99.90;;;;;;5030996;28;20222;-72
2024/03/25 03:07:09;;;;;;;15.90;7.03;;;5.50;99.90;;;;;;5031320;28;20663;-73
2024/03/25 03:09:35;;;;;;;16.37;7.17;;;5.50;99.90;;;;;;5032814;28;20305;-70
2024/03/25 03:12:00;;;;;;;14.87;6.80;;;5.50;99.90;;;;;;5032213;28;20215;-71
2024/03/25 03:14:26;;;;;;;16.33;7.70;;;5.40;99.90;;;;;;5033674;28;20664;-71
2024/03/25 03:16:57;;;;;;;16.37;8.43;;;5.40;99.90;;;;;;5031934;28;20705;-72
2024/03/25 03:19:26;;;;;;;17.40;7.03;;;5.30;99.90;;;;;;5032814;28;20196;-71
2024/03/25 03:21:52;;;;;;;19.80;7.30;;;5.20;99.90;;;;;;5032600;28;20214;-70
2024/03/25 03:24:18;;;;;;;20.60;7.47;;;5.10;99.90;;;;;;5023086;28;20208;-71
2024/03/25 03:26:44;;;;;;;20.93;7.60;;;5.00;99.90;;;;;;5014148;28;20198;-71
2024/03/25 03:29:09;;;;;;;22.47;7.37;;;4.90;99.90;;;;;;5033031;28;20167;-71
2024/03/25 03:31:35;;;;;;;15.97;6.90;;;4.90;99.90;;;;;;5032819;28;20205;-71
2024/03/25 03:34:01;;;;;;;27.50;8.47;;;4.80;99.90;;;;;;5033100;28;20640;-71
2024/03/25 03:36:27;;;;;;;17.63;7.10;;;4.80;99.90;;;;;;5032536;28;20667;-71
2024/03/25 03:38:52;;;;;;;20.00;6.83;;;4.70;99.90;;;;;;5029410;28;20210;-71
2024/03/25 03:41:18;;;;;;;18.90;7.57;;;4.70;99.90;;;;;;5028212;28;20215;-71
2024/03/25 03:43:43;;;;;;;18.93;7.57;;;4.70;99.90;;;;;;5032581;28;20202;-70
2024/03/25 03:46:09;;;;;;;14.90;7.30;;;4.70;99.90;;;;;;5018473;28;20207;-71
2024/03/25 03:48:35;;;;;;;14.53;7.80;;;4.70;99.90;;;;;;5023265;28;20183;-70
2024/03/25 03:51:01;;;;;;;20.50;7.40;;;4.70;99.90;;;;;;5019681;28;20183;-71
2024/03/25 03:53:27;;;;;;;15.43;7.73;;;4.60;99.90;;;;;;5017087;28;20222;-70
2024/03/25 03:55:57;;;;;;;15.63;7.53;;;4.60;99.90;;;;;;5031838;28;20196;-70
2024/03/25 03:58:23;;;;;;;18.63;7.93;;;4.60;99.90;;;;;;5025363;28;20182;-70
2024/03/25 04:00:49;;;;;;;21.00;7.93;;;4.50;99.90;;;;;;5031865;28;20188;-70
2024/03/25 04:03:15;;;;;;;20.17;8.67;;;4.40;99.90;;;;;;5032031;28;20199;-70
2024/03/25 04:05:41;;;;;;;14.47;7.80;;;4.40;99.90;;;;;;5031503;28;20215;-70
2024/03/25 04:08:06;;;;;;;18.97;9.07;;;4.40;99.90;;;;;;5032124;28;20194;-70
2024/03/25 04:10:32;;;;;;;21.07;8.10;;;4.40;99.90;;;;;;5031906;28;20176;-70
2024/03/25 04:12:57;;;;;;;10.90;7.10;;;4.30;99.90;;;;;;5031634;28;20230;-70
2024/03/25 04:15:24;;;;;;;20.83;7.60;;;4.30;99.90;;;;;;5031591;28;20191;-70
2024/03/25 04:17:49;;;;;;;24.50;8.87;;;4.30;99.90;;;;;;5031764;28;20210;-70
2024/03/25 04:20:16;;;;;;;14.97;8.27;;;4.20;99.90;;;;;;5027649;28;20188;-70
2024/03/25 04:22:45;;;;;;;18.00;8.70;;;4.20;99.90;;;;;;5029836;28;20203;-70
2024/03/25 04:25:11;;;;;;;14.97;8.43;;;4.20;99.90;;;;;;5031303;28;20230;-70
2024/03/25 04:27:41;;;;;;;20.63;8.53;;;4.20;99.90;;;;;;5031379;28;20176;-70
2024/03/25 04:30:08;;;;;;;16.93;7.97;;;4.10;99.90;;;;;;5025765;28;20616;-70
2024/03/25 04:32:34;;;;;;;14.97;7.77;;;4.10;99.90;;;;;;5031456;28;20710;-70
2024/03/25 04:34:59;;;;;;;21.20;9.00;;;4.10;99.90;;;;;;5031378;28;20175;-70
2024/03/25 04:37:27;;;;;;;26.20;8.10;;;4.00;99.90;;;;;;5031348;28;20183;-70
2024/03/25 04:39:53;;;;;;;14.13;8.03;;;4.00;99.90;;;;;;5027800;28;20184;-70
2024/03/25 04:42:19;;;;;;;12.50;8.27;;;4.00;99.90;;;;;;5031452;28;20231;-70
2024/03/25 04:44:45;;;;;;;22.47;9.47;;;4.00;99.90;;;;;;5031185;28;20241;-72
2024/03/25 04:47:11;;;;;;;16.83;8.17;;;3.90;99.90;;;;;;5031306;28;20203;-70
2024/03/25 04:49:37;;;;;;;19.07;9.13;;;3.90;99.90;;;;;;5018752;28;20668;-70
2024/03/25 04:52:04;;;;;;;18.50;8.97;;;3.80;99.90;;;;;;5016004;28;20202;-70
2024/03/25 04:54:29;;;;;;;21.90;8.13;;;3.70;99.90;;;;;;5031270;28;20668;-70
2024/03/25 04:56:55;;;;;;;20.57;8.00;;;3.70;99.90;;;;;;5025257;28;20262;-70
2024/03/25 04:59:21;;;;;;;13.87;7.80;;;3.60;99.90;;;;;;5031281;28;20675;-70
2024/03/25 05:01:47;;;;;;;19.17;8.50;;;3.60;99.90;;;;;;5030892;28;20200;-70
2024/03/25 05:04:12;;;;;;;18.53;8.37;;;3.50;99.90;;;;;;5031113;28;20214;-70
2024/03/25 05:06:38;;;;;;;19.03;9.07;;;3.50;99.90;;;;;;5031077;28;20710;-70
2024/03/25 05:09:05;;;;;;;22.17;9.30;;;3.40;99.90;;;;;;5031030;28;20232;-70
2024/03/25 05:11:31;;;;;;;33.07;12.23;;;3.40;99.90;;;;;;5027755;28;20581;-70
2024/03/25 05:13:57;;;;;;;22.33;9.83;;;3.30;99.90;;;;;;5030986;28;20184;-70
2024/03/25 05:16:23;;;;;;;17.63;9.00;;;3.30;99.90;;;;;;5021725;28;20192;-70
2024/03/25 05:18:48;;;;;;;27.80;10.27;;;3.20;99.90;;;;;;5028727;28;20191;-70
2024/03/25 05:21:14;;;;;;;25.57;9.07;;;3.20;99.90;;;;;;5025142;28;20573;-70
2024/03/25 05:23:40;;;;;;;16.50;8.83;;;3.10;99.90;;;;;;5020166;28;20207;-70
2024/03/25 05:26:05;;;;;;;20.83;7.97;;;3.10;99.90;;;;;;5030793;28;20186;-70
2024/03/25 05:28:31;;;;;;;22.37;9.30;;;3.10;99.90;;;;;;5031006;28;20703;-70
2024/03/25 05:30:56;;;;;;;18.37;7.97;;;3.10;99.90;;;;;;5027665;28;20726;-70
2024/03/25 05:33:22;;;;;;;28.53;9.53;;;3.10;99.90;;;;;;5026080;28;20176;-70
2024/03/25 05:35:48;;;;;;;12.77;8.10;;;3.10;99.90;;;;;;5032300;28;20711;-70
2024/03/25 05:38:14;;;;;;;23.67;8.73;;;3.10;99.90;;;;;;5033462;28;20221;-69
2024/03/25 05:40:39;;;;;;;23.83;9.87;;;3.00;99.90;;;;;;5032376;28;20547;-69
2024/03/25 05:43:05;;;;;;;20.47;8.57;;;3.00;99.90;;;;;;5034708;28;20196;-70
2024/03/25 05:45:30;;;;;;;25.77;10.03;;;3.00;99.90;;;;;;5022971;28;20199;-70
2024/03/25 05:47:56;;;;;;;19.60;9.40;;;3.00;99.90;;;;;;5033365;28;20223;-69
2024/03/25 05:50:21;;;;;;;18.60;7.90;;;3.00;99.90;;;;;;5034452;28;20657;-70
2024/03/25 05:52:47;;;;;;;23.23;8.73;;;3.10;99.90;;;;;;5034007;28;20280;-70
2024/03/25 05:55:13;;;;;;;23.63;8.50;;;3.10;99.90;;;;;;5034257;28;20182;-70
2024/03/25 05:57:39;;;;;;;25.13;10.07;;;3.20;99.90;;;;;;5033945;28;20310;-70
2024/03/25 06:00:07;;;;;;;18.67;9.30;;;3.20;99.90;;;;;;5026214;28;20274;-71
2024/03/25 06:02:33;;;;;;;13.03;7.87;;;3.20;99.90;;;;;;5034074;28;20199;-71
2024/03/25 06:04:58;;;;;;;23.87;7.97;;;3.30;99.90;;;;;;5033824;28;20286;-71
2024/03/25 06:07:24;;;;;;;15.07;8.27;;;3.30;99.90;;;;;;5034051;28;20203;-71
2024/03/25 06:09:49;;;;;;;21.57;8.77;;;3.40;99.90;;;;;;5033918;28;20179;-71
2024/03/25 06:12:15;;;;;;;19.67;9.07;;;3.40;99.90;;;;;;5027691;28;20212;-72
2024/03/25 06:14:40;;;;;;;19.70;9.00;;;3.50;99.90;;;;;;5029005;28;20179;-71
2024/03/25 06:17:06;;;;;;;21.30;10.23;;;3.50;99.90;;;;;;5033742;28;20524;-71
2024/03/25 06:19:32;;;;;;;23.13;9.00;;;3.60;99.90;;;;;;5033694;28;20195;-71
2024/03/25 06:21:57;;;;;;;17.90;10.30;;;3.70;99.90;;;;;;5033785;28;20200;-71
2024/03/25 06:24:23;;;;;;;22.10;9.73;;;3.80;99.90;;;;;;5034142;28;20252;-71
2024/03/25 06:26:49;;;;;;;19.20;10.00;;;3.80;99.90;;;;;;5034380;28;20171;-71
2024/03/25 06:29:14;;;;;;;20.43;9.47;;;3.90;99.90;;;;;;5034547;28;20550;-71
2024/03/25 06:34:24;;;;;;;23.17;10.70;;;4.10;99.90;;;;;;5032927;28;20214;-71
2024/03/25 06:36:50;;;;;;;25.50;10.17;;;4.30;99.90;;;;;;5034283;28;20187;-71
2024/03/25 06:39:16;;;;;;;16.60;9.60;;;4.50;99.90;;;;;;5034580;28;20270;-71
2024/03/25 06:41:41;;;;;;;20.33;10.53;;;4.60;99.90;;;;;;5026548;28;20264;-71
2024/03/25 06:44:07;;;;;;;18.63;11.37;;;4.80;99.90;;;;;;5034637;28;20211;-71
2024/03/25 06:46:33;;;;;;;17.13;9.70;;;4.90;99.90;;;;;;5032675;28;20183;-71
2024/03/25 06:48:59;;;;;;;22.70;10.57;;;5.10;99.90;;;;;;5033246;28;20171;-70
2024/03/25 06:51:25;;;;;;;15.03;9.60;;;5.30;99.90;;;;;;5024074;28;20207;-71
2024/03/25 06:53:51;;;;;;;27.13;10.67;;;5.60;99.90;;;;;;5032862;28;20179;-71
2024/03/25 06:56:16;;;;;;;21.20;11.10;;;6.00;99.90;;;;;;5033116;28;20225;-72
2024/03/25 06:58:43;;;;;;;25.97;11.67;;;6.40;99.90;;;;;;5033139;28;20245;-71
2024/03/25 07:01:11;;;;;;;19.97;9.50;;;6.70;99.90;;;;;;5033087;28;20203;-71
2024/03/25 07:03:38;;;;;;;17.97;8.53;;;6.90;99.90;;;;;;5032932;28;20198;-71
2024/03/25 07:06:05;;;;;;;16.40;8.87;;;7.20;99.90;;;;;;5030936;28;20195;-72
2024/03/25 07:08:31;;;;;;;16.93;8.47;;;7.50;99.90;;;;;;5033813;28;20551;-72
2024/03/25 07:10:57;;;;;;;16.27;7.90;;;7.70;99.90;;;;;;5033040;28;20180;-72
2024/03/25 07:13:22;;;;;;;15.00;6.97;;;7.80;99.90;;;;;;5025364;28;20183;-72
2024/03/25 07:15:48;;;;;;;15.27;5.83;;;8.20;99.90;;;;;;5032248;28;20560;-73
2024/03/25 07:18:14;;;;;;;14.50;6.43;;;8.50;99.90;;;;;;5033538;28;20187;-72
2024/03/25 07:20:43;;;;;;;10.43;5.77;;;9.00;99.90;;;;;;5029592;28;20237;-72
2024/03/25 07:23:09;;;;;;;16.70;6.03;;;9.60;99.90;;;;;;5033556;28;20198;-73
2024/03/25 07:25:35;;;;;;;10.40;5.67;;;10.10;99.90;;;;;;5032761;28;20700;-72
2024/03/25 07:28:01;;;;;;;10.97;5.40;;;10.50;99.90;;;;;;5033239;28;20202;-72
2024/03/25 07:30:29;;;;;;;16.57;5.60;;;10.80;99.90;;;;;;5034452;28;20247;-73
2024/03/25 07:32:58;;;;;;;13.10;5.67;;;11.20;99.90;;;;;;5033351;28;20211;-72
2024/03/25 07:35:24;;;;;;;13.53;5.10;;;11.30;99.90;;;;;;5036099;28;20192;-76
2024/03/25 07:37:51;;;;;;;13.30;4.97;;;11.60;99.90;;;;;;5035300;28;20192;-72
2024/03/25 07:40:17;;;;;;;9.80;5.07;;;11.80;99.90;;;;;;5035885;28;20183;-72
2024/03/25 07:42:43;;;;;;;10.73;5.57;;;11.70;99.90;;;;;;5035037;28;20219;-71
2024/03/25 07:45:09;;;;;;;13.20;5.30;;;11.60;99.90;;;;;;5022433;28;20220;-71
2024/03/25 07:47:34;;;;;;;13.50;5.17;;;11.60;99.90;;;;;;5024393;28;20675;-72
2024/03/25 07:50:00;;;;;;;10.37;4.50;;;11.90;99.90;;;;;;5033157;28;20171;-72
2024/03/25 07:52:27;;;;;;;12.13;4.27;;;11.90;99.90;;;;;;5032772;28;20233;-71
2024/03/25 07:54:52;;;;;;;12.70;4.87;;;12.30;99.90;;;;;;5032953;28;20230;-71
2024/03/25 07:57:19;;;;;;;6.47;4.23;;;12.80;99.90;;;;;;5033177;28;20184;-72
2024/03/25 07:59:45;;;;;;;12.90;4.73;;;13.00;99.90;;;;;;5033551;28;20179;-71
2024/03/25 08:02:10;;;;;;;12.03;4.80;;;13.10;99.90;;;;;;5032055;28;20214;-71
2024/03/25 08:04:36;;;;;;;5.93;5.00;;;12.80;99.90;;;;;;5034723;28;20610;-71
2024/03/25 08:07:02;;;;;;;11.20;5.23;;;12.60;99.90;;;;;;5032741;28;20191;-70
2024/03/25 08:09:28;;;;;;;9.90;5.00;;;12.70;99.90;;;;;;5030422;28;20188;-71
2024/03/25 08:11:54;;;;;;;10.67;5.50;;;13.00;99.90;;;;;;5033144;28;20330;-72
2024/03/25 08:14:20;;;;;;;11.53;5.33;;;13.10;99.90;;;;;;5031603;28;20211;-72
2024/03/25 08:16:45;;;;;;;11.87;5.40;;;13.20;99.90;;;;;;5031049;28;20184;-72
2024/03/25 08:19:11;;;;;;;9.77;4.80;;;13.40;99.90;;;;;;5028220;28;20679;-72
2024/03/25 08:21:36;;;;;;;9.67;5.13;;;13.40;99.90;;;;;;5023323;28;20191;-72
2024/03/25 08:24:02;;;;;;;11.03;4.30;;;13.60;99.90;;;;;;5025211;28;20214;-72
2024/03/25 08:26:28;;;;;;;11.90;4.17;;;13.80;99.90;;;;;;5029513;28;20187;-72
2024/03/25 08:28:53;;;;;;;9.17;3.87;;;14.20;99.90;;;;;;5028940;28;20238;-72
2024/03/25 08:31:19;;;;;;;10.17;4.00;;;14.70;99.90;;;;;;5031229;28;20270;-72
2024/03/25 08:33:45;;;;;;;14.80;4.20;;;14.80;99.90;;;;;;5031048;28;20183;-72
2024/03/25 08:36:10;;;;;;;13.10;4.27;;;14.90;99.90;;;;;;5030837;28;20208;-71
2024/03/25 08:38:36;;;;;;;14.23;4.77;;;15.20;99.90;;;;;;5031203;28;20186;-72
2024/03/25 08:41:01;;;;;;;10.27;4.00;;;15.50;99.90;;;;;;5030931;28;20570;-71
2024/03/25 08:43:27;;;;;;;9.73;3.97;;;15.90;99.90;;;;;;5022985;28;20176;-71
2024/03/25 08:45:53;;;;;;;12.07;3.70;;;16.20;99.90;;;;;;5026577;28;20274;-72
2024/03/25 08:48:18;;;;;;;9.07;3.83;;;16.40;97.70;;;;;;5023575;28;20243;-72
2024/03/25 08:50:44;;;;;;;6.73;3.30;;;16.50;96.60;;;;;;5024622;28;20640;-72
2024/03/25 08:53:10;;;;;;;14.10;3.90;;;16.60;96.90;;;;;;5030846;28;20272;-72
2024/03/25 08:55:35;;;;;;;9.40;3.40;;;17.00;93.10;;;;;;5030693;28;20640;-71
2024/03/25 08:58:01;;;;;;;8.73;3.57;;;17.40;95.70;;;;;;5022148;28;20184;-72
2024/03/25 09:00:27;;;;;;;7.60;3.17;;;17.50;86.90;;;;;;5030979;28;20648;-72
2024/03/25 09:02:53;;;;;;;9.93;3.87;;;17.80;90.40;;;;;;5027080;28;20191;-72
2024/03/25 09:05:19;;;;;;;8.67;2.97;;;17.80;78.80;;;;;;5024110;28;20206;-71
2024/03/25 09:07:45;;;;;;;9.03;3.40;;;17.60;85.70;;;;;;5031134;28;20191;-72
2024/03/25 09:12:55;;;;;;;11.98;4.00;;;18.50;83.20;;;;;;5018044;28;20214;-72
2024/03/25 09:15:21;;;;;;;7.53;3.60;;;18.60;83.90;;;;;;5030566;28;20175;-73
2024/03/25 09:17:46;;;;;;;9.63;3.63;;;18.90;81.40;;;;;;5030537;28;20606;-72
2024/03/25 09:20:20;;;;;;;8.95;3.63;;;19.00;73.50;;;;;;5015439;28;20183;-72
2024/03/25 09:22:48;;;;;;;6.30;3.53;;;19.10;77.80;;;;;;5025680;28;20201;-72
2024/03/25 09:25:17;;;;;;;10.77;4.10;;;19.10;77.20;;;;;;5030787;28;20569;-72
2024/03/25 09:27:50;;;;;;;8.50;3.95;;;19.20;70.70;;;;;;5030425;28;20703;-72
2024/03/25 09:30:15;;;;;;;10.45;3.97;;;19.20;73.30;;;;;;5025661;28;20194;-70
2024/03/25 09:32:42;;;;;;;8.90;3.83;;;19.30;73.00;;;;;;5030604;28;20195;-72
2024/03/25 09:35:08;;;;;;;11.27;4.15;;;19.40;78.30;;;;;;5025801;28;20645;-71
2024/03/25 09:37:34;;;;;;;9.40;3.63;;;19.80;68.50;;;;;;5030714;28;20496;-72
2024/03/25 09:40:00;;;;;;;12.40;3.72;;;19.80;65.20;;;;;;5030451;28;20198;-71
2024/03/25 09:42:27;;;;;;;8.73;3.72;;;20.00;68.90;;;;;;5030639;28;20557;-71
2024/03/25 09:44:56;;;;;;;11.40;4.72;;;20.10;66.20;;;;;;5030532;28;20199;-71
2024/03/25 09:47:22;;;;;;;9.23;3.53;;;20.10;67.40;;;;;;5030599;28;20703;-71
2024/03/25 09:49:49;;;;;;;7.30;3.85;;;20.30;68.80;;;;;;5030442;28;20176;-72
2024/03/25 09:52:15;;;;;;;10.93;4.45;;;20.10;58.40;;;;;;5030236;28;20195;-71
2024/03/25 09:54:41;;;;;;;11.65;5.15;;;19.90;61.10;;;;;;5031245;28;20629;-72
2024/03/25 09:57:08;;;;;;;9.52;4.05;;;19.50;63.10;;;;;;5030070;28;20672;-72
2024/03/25 09:59:34;;;;;;;10.63;5.13;;;19.10;66.20;;;;;;5030951;28;20187;-72
2024/03/25 10:02:01;;;;;;;7.90;4.43;;;18.90;62.60;;;;;;5030413;28;20204;-71
2024/03/25 10:04:27;;;;;;;10.87;5.37;;;18.30;57.70;;;;;;5030732;28;20717;-72
2024/03/25 10:06:53;;;;;;;12.47;5.07;;;17.50;64.90;;;;;;5030405;28;20429;-72
2024/03/25 10:09:20;;;;;;;9.13;4.90;;;17.50;66.80;;;;;;5030891;28;20188;-72
2024/03/25 10:11:48;;;;;;;12.20;5.80;;;17.50;73.30;;;;;;5030514;28;20210;-72
2024/03/25 10:14:18;;;;;;;12.63;5.30;;;17.70;74.40;;;;;;5022095;28;20716;-72
2024/03/25 10:16:44;;;;;;;9.57;5.00;;;17.80;65.40;;;;;;5022191;28;20545;-73
2024/03/25 10:19:10;;;;;;;10.03;4.20;;;18.00;73.10;;;;;;5027156;28;20641;-72
2024/03/25 10:21:36;;;;;;;10.77;4.90;;;18.20;63.60;;;;;;5030325;28;20200;-72
2024/03/25 10:24:04;;;;;;;8.43;4.77;;;18.20;69.70;;;;;;5034152;28;20238;-72
2024/03/25 10:26:35;;;;;;;9.87;4.83;;;18.20;63.90;;;;;;5034840;28;20615;-72
2024/03/25 10:29:01;;;;;;;9.70;4.67;;;17.80;58.00;;;;;;5034631;28;20254;-72
2024/03/25 10:31:27;;;;;;;6.73;4.00;;;17.60;62.50;;;;;;5033975;28;20195;-72
2024/03/25 10:33:53;;;;;;;8.07;4.60;;;17.50;66.70;;;;;;5031034;28;20180;-71
2024/03/25 10:36:20;;;;;;;7.77;4.20;;;17.40;59.40;;;;;;5034927;28;20598;-71
2024/03/25 10:38:48;;;;;;;7.90;3.83;;;17.30;64.20;;;;;;5034313;28;20211;-71
2024/03/25 10:41:17;;;;;;;5.70;3.80;;;17.50;63.10;;;;;;5023161;28;20203;-71
2024/03/25 10:43:46;;;;;;;6.37;3.83;;;17.60;64.40;;;;;;5033654;28;20175;-71
2024/03/25 10:46:15;;;;;;;6.47;3.60;;;17.50;61.70;;;;;;5023161;28;20172;-72
2024/03/25 10:48:43;;;;;;;11.33;3.67;;;17.40;63.50;;;;;;5020998;28;20172;-71
2024/03/25 10:51:12;;;;;;;10.53;3.90;;;17.40;64.90;;;;;;5022699;28;20212;-71
2024/03/25 10:53:41;;;;;;;7.73;3.50;;;17.50;66.00;;;;;;5024954;28;20244;-72
2024/03/25 10:56:07;;;;;;;6.30;3.57;;;17.60;59.50;;;;;;5034876;28;20370;-72
2024/03/25 10:58:33;;;;;;;7.37;4.03;;;17.60;57.40;;;;;;5036256;28;20696;-72
2024/03/25 11:01:00;;;;;;;9.40;4.10;;;17.40;58.30;;;;;;5033618;28;20172;-71
2024/03/25 11:03:26;;;;;;;9.57;3.67;;;17.60;61.50;;;;;;5025824;28;20172;-71
2024/03/25 11:05:52;;;;;;;6.23;3.30;;;17.60;58.30;;;;;;5023641;28;20214;-72
2024/03/25 11:08:18;;;;;;;7.87;3.67;;;17.30;52.20;;;;;;5034015;28;20618;-72
2024/03/25 11:10:44;;;;;;;8.43;4.17;;;17.40;57.90;;;;;;5032615;28;20178;-72
2024/03/25 11:13:14;;;;;;;6.43;3.37;;;17.30;55.70;;;;;;5034594;28;20566;-71
2024/03/25 11:15:44;;;;;;;7.67;4.33;;;17.30;52.70;;;;;;5018909;28;20683;-72
2024/03/25 11:18:13;;;;;;;5.60;3.33;;;17.10;50.60;;;;;;5032560;28;20194;-71
2024/03/25 11:20:39;;;;;;;5.43;3.40;;;17.00;56.70;;;;;;5034308;28;20171;-71
2024/03/25 11:23:10;;;;;;;7.07;3.67;;;17.30;54.10;;;;;;5033694;28;20206;-71
2024/03/25 11:25:36;;;;;;;7.60;3.80;;;17.60;57.30;;;;;;5033847;28;20597;-72
2024/03/25 11:28:02;;;;;;;8.97;3.43;;;18.20;62.30;;;;;;5034914;28;20186;-71
2024/03/25 11:30:29;;;;;;;5.37;3.33;;;18.10;55.20;;;;;;5030701;28;20179;-71
2024/03/25 11:32:55;;;;;;;7.90;3.80;;;18.20;57.90;;;;;;5037047;28;20274;-72
2024/03/25 11:35:21;;;;;;;5.78;3.28;;;18.40;59.20;;;;;;5034597;28;20266;-71
2024/03/25 11:37:47;;;;;;;8.53;3.90;;;18.30;57.70;;;;;;5033726;28;20635;-71
2024/03/25 11:40:14;;;;;;;11.57;3.87;;;18.10;54.60;;;;;;5034276;28;20194;-73
2024/03/25 11:42:43;;;;;;;6.57;3.77;;;17.70;50.00;;;;;;5035390;28;20195;-71
2024/03/25 11:45:20;;;;;;;6.93;3.63;;;17.50;52.20;;;;;;5017908;28;20269;-72
2024/03/25 11:47:47;;;;;;;6.43;3.83;;;17.40;55.00;;;;;;5033383;28;20613;-72
2024/03/25 11:50:14;;;;;;;7.70;3.47;;;17.20;55.80;;;;;;5032995;28;20587;-72
2024/03/25 11:52:41;;;;;;;6.87;3.30;;;17.30;51.30;;;;;;5033001;28;20203;-72
2024/03/25 11:55:10;;;;;;;8.87;3.20;;;17.30;55.20;;;;;;5025966;28;20657;-72
2024/03/25 11:57:37;;;;;;;5.93;3.33;;;17.10;48.20;;;;;;5034118;28;20254;-73
2024/03/25 12:00:05;;;;;;;5.77;3.03;;;16.80;51.60;;;;;;5034358;28;20221;-71
2024/03/25 12:02:31;;;;;;;7.43;3.27;;;16.60;49.60;;;;;;5025742;28;20200;-72
2024/03/25 12:04:57;;;;;;;7.03;3.30;;;16.50;52.00;;;;;;5024922;28;20226;-72
2024/03/25 12:07:22;;;;;;;7.27;3.47;;;16.40;53.30;;;;;;5035228;28;20437;-72
2024/03/25 12:12:34;;;;;;;8.83;3.50;;;17.00;54.00;;;;;;5009900;28;20213;-72
2024/03/25 12:15:02;;;;;;;5.23;3.43;;;17.10;48.10;;;;;;5034376;28;20182;-72
2024/03/25 12:17:28;;;;;;;4.40;2.90;;;17.10;51.80;;;;;;5028617;28;20251;-72
2024/03/25 12:20:07;;;;;;;5.13;2.90;;;17.30;49.70;;;;;;5031398;28;20198;-72
2024/03/25 12:22:34;;;;;;;4.57;3.23;;;17.40;49.10;;;;;;5034745;28;20222;-72
2024/03/25 12:25:01;;;;;;;5.43;3.00;;;17.30;46.80;;;;;;5032929;28;20203;-71
2024/03/25 12:27:28;;;;;;;6.33;3.07;;;17.00;42.20;;;;;;5033705;28;20266;-73
2024/03/25 12:30:03;;;;;;;4.30;2.93;;;16.90;44.30;;;;;;5032765;28;20194;-70
2024/03/25 12:32:43;;;;;;;3.57;2.70;;;17.00;51.00;;;;;;5026913;28;20202;-72
2024/03/25 12:35:13;;;;;;;6.50;3.10;;;17.30;50.00;;;;;;5034757;28;20188;-72
2024/03/25 12:37:40;;;;;;;4.60;2.40;;;17.80;52.60;;;;;;5024083;28;20301;-72
2024/03/25 12:40:08;;;;;;;4.37;2.80;;;17.90;42.50;;;;;;5034218;28;20648;-73
2024/03/25 12:42:34;;;;;;;5.77;2.77;;;18.00;44.40;;;;;;5036046;28;20694;-72
2024/03/25 12:44:59;;;;;;;5.17;2.53;;;17.90;47.10;;;;;;5029847;28;20274;-72
2024/03/25 12:47:25;;;;;;;7.00;2.63;;;18.00;42.40;;;;;;5035721;28;20186;-72
2024/03/25 12:49:51;;;;;;;4.10;2.53;;;17.90;39.40;;;;;;5034494;28;20176;-72